Time,TemperatureF,DewpointF,PressureIn,WindDirection,WindDirectionDegrees,WindSpeedMPH,WindSpeedGustMPH,Humidity,HourlyPrecipIn,Conditions,Clouds,dailyrainin,SolarRadiationWatts/m^2,SoftwareType,DateUTC
2013-05-23 00:01:00,45.8,43.0,29.96,SW,229,4.0,5.0,90,0.00,,,0.00,0,Wunderground v.1.15,2013-05-23 07:01:00,
2013-05-23 00:10:00,45.8,43.0,29.96,SSW,211,6.0,6.0,90,0.00,,,0.00,0,Wunderground v.1.15,2013-05-23 07:10:00,
2013-05-23 00:21:00,45.7,42.9,29.96,SSW,207,6.0,6.0,90,0.00,,,0.00,0,Wunderground v.1.15,2013-05-23 07:21:00,
2013-05-23 00:30:00,45.6,43.1,29.96,SW,224,5.0,5.0,91,0.00,,,0.00,0,Wunderground v.1.15,2013-05-23 07:30:00,
2013-05-23 00:41:00,45.6,43.1,29.96,SSW,209,5.0,7.0,91,0.00,,,0.00,0,Wunderground v.1.15,2013-05-23 07:41:00,
2013-05-23 00:51:00,45.7,43.2,29.96,SW,219,5.0,6.0,91,0.00,,,0.00,0,Wunderground v.1.15,2013-05-23 07:51:00,
2013-05-23 01:01:00,45.7,43.5,29.96,SSW,208,5.0,5.0,92,0.00,,,0.00,0,Wunderground v.1.15,2013-05-23 08:01:00,
2013-05-23 01:11:00,45.6,43.4,29.95,SW,215,5.0,6.0,92,0.00,,,0.00,0,Wunderground v.1.15,2013-05-23 08:11:00,
2013-05-23 01:20:00,45.7,43.5,29.95,WSW,242,6.0,6.0,92,0.00,,,0.00,0,Wunderground v.1.15,2013-05-23 08:20:00,
2013-05-23 01:31:00,45.8,43.6,29.96,SSW,202,5.0,5.0,92,0.00,,,0.00,0,Wunderground v.1.15,2013-05-23 08:31:00,
2013-05-23 01:41:00,45.7,43.5,29.96,WSW,238,5.0,7.0,92,0.00,,,0.00,0,Wunderground v.1.15,2013-05-23 08:41:00,
2013-05-23 01:51:00,45.7,43.5,29.95,WSW,242,6.0,7.0,92,0.00,,,0.00,0,Wunderground v.1.15,2013-05-23 08:51:00,
2013-05-23 02:01:00,45.7,43.5,29.95,SW,233,5.0,5.0,92,0.00,,,0.00,0,Wunderground v.1.15,2013-05-23 09:01:00,
2013-05-23 02:10:00,45.7,43.5,29.95,WSW,242,4.0,4.0,92,0.00,,,0.00,0,Wunderground v.1.15,2013-05-23 09:10:00,
2013-05-23 02:21:00,45.8,43.6,29.95,SW,226,4.0,4.0,92,0.00,,,0.00,0,Wunderground v.1.15,2013-05-23 09:21:00,
2013-05-23 02:31:00,46.1,44.2,29.95,WSW,238,3.0,3.0,93,0.00,,,0.00,0,Wunderground v.1.15,2013-05-23 09:31:00,
2013-05-23 02:40:00,46.2,44.3,29.95,WSW,242,1.0,1.0,93,0.00,,,0.00,0,Wunderground v.1.15,2013-05-23 09:40:00,
2013-05-23 02:51:00,46.3,44.1,29.94,West,267,1.0,1.0,92,0.00,,,0.00,0,Wunderground v.1.15,2013-05-23 09:51:00,
2013-05-23 03:01:00,46.3,44.1,29.95,WNW,288,2.0,2.0,92,0.00,,,0.00,0,Wunderground v.1.15,2013-05-23 10:01:00,
2013-05-23 03:10:00,46.3,44.1,29.94,West,261,2.0,8.0,92,0.00,,,0.00,0,Wunderground v.1.15,2013-05-23 10:10:00,
2013-05-23 03:21:00,46.3,44.1,29.95,West,275,2.0,2.0,92,0.00,,,0.00,0,Wunderground v.1.15,2013-05-23 10:21:00,
2013-05-23 03:31:00,46.3,44.1,29.95,NW,313,1.0,1.0,92,0.00,,,0.00,0,Wunderground v.1.15,2013-05-23 10:31:00,
2013-05-23 03:40:00,46.2,44.0,29.95,WNW,294,0.0,0.0,92,0.00,,,0.00,0,Wunderground v.1.15,2013-05-23 10:40:00,
2013-05-23 03:50:00,46.2,44.0,29.95,West,265,2.0,2.0,92,0.00,,,0.00,0,Wunderground v.1.15,2013-05-23 10:50:00,
2013-05-23 04:01:00,46.3,44.1,29.95,WSW,253,2.0,3.0,92,0.00,,,0.00,0,Wunderground v.1.15,2013-05-23 11:01:00,
2013-05-23 04:10:00,46.3,43.8,29.95,West,268,0.0,0.0,91,0.00,,,0.00,0,Wunderground v.1.15,2013-05-23 11:10:00,
2013-05-23 04:21:00,46.3,43.8,29.95,West,266,0.0,0.0,91,0.00,,,0.00,0,Wunderground v.1.15,2013-05-23 11:21:00,
2013-05-23 04:30:00,46.3,43.8,29.95,West,261,1.0,1.0,91,0.00,,,0.00,0,Wunderground v.1.15,2013-05-23 11:30:00,
2013-05-23 04:41:00,46.4,43.9,29.94,WNW,282,0.0,0.0,91,0.00,,,0.00,0,Wunderground v.1.15,2013-05-23 11:41:00,
2013-05-23 04:51:00,46.4,43.9,29.95,WNW,298,2.0,3.0,91,0.00,,,0.00,0,Wunderground v.1.15,2013-05-23 11:51:00,
2013-05-23 05:00:00,46.4,43.9,29.95,WNW,299,4.0,6.0,91,0.00,,,0.00,0,Wunderground v.1.15,2013-05-23 12:00:00,
2013-05-23 05:11:00,46.4,43.6,29.95,WNW,300,3.0,3.0,90,0.00,,,0.00,0,Wunderground v.1.15,2013-05-23 12:11:00,
2013-05-23 05:20:00,46.3,43.5,29.95,NW,309,4.0,5.0,90,0.00,,,0.00,0,Wunderground v.1.15,2013-05-23 12:20:00,
2013-05-23 05:30:00,46.2,43.4,29.95,NW,312,2.0,5.0,90,0.00,,,0.00,0,Wunderground v.1.15,2013-05-23 12:30:00,
2013-05-23 05:41:00,46.0,42.9,29.95,WNW,295,3.0,3.0,89,0.00,,,0.00,0,Wunderground v.1.15,2013-05-23 12:41:00,
2013-05-23 05:51:00,45.8,42.7,29.95,NW,308,0.0,0.0,89,0.00,,,0.00,0,Wunderground v.1.15,2013-05-23 12:51:00,
2013-05-23 06:00:00,45.6,42.5,29.95,NNE,29,0.0,0.0,89,0.00,,,0.00,7,Wunderground v.1.15,2013-05-23 13:00:00,
2013-05-23 06:11:00,45.4,42.3,29.96,West,281,0.0,0.0,89,0.00,,,0.00,12,Wunderground v.1.15,2013-05-23 13:11:00,
2013-05-23 06:21:00,45.4,42.3,29.96,West,281,0.0,0.0,89,0.00,,,0.00,16,Wunderground v.1.15,2013-05-23 13:21:00,
2013-05-23 06:30:00,45.4,42.6,29.96,West,261,0.0,0.0,90,0.00,,,0.00,23,Wunderground v.1.15,2013-05-23 13:30:00,
2013-05-23 06:41:00,45.4,42.3,29.97,WSW,250,0.0,0.0,89,0.00,,,0.00,37,Wunderground v.1.15,2013-05-23 13:41:00,
2013-05-23 06:51:00,45.4,42.6,29.97,SE,132,0.0,0.0,90,0.00,,,0.00,56,Wunderground v.1.15,2013-05-23 13:51:00,
2013-05-23 07:00:00,45.4,42.6,29.97,SE,129,0.0,0.0,90,0.00,,,0.00,46,Wunderground v.1.15,2013-05-23 14:00:00,
2013-05-23 07:11:00,45.4,42.6,29.97,East,101,0.0,0.0,90,0.00,,,0.00,74,Wunderground v.1.15,2013-05-23 14:11:00,
2013-05-23 07:21:00,45.5,42.4,29.97,East,82,0.0,0.0,89,0.00,,,0.00,37,Wunderground v.1.15,2013-05-23 14:21:00,
2013-05-23 07:30:00,45.7,42.6,29.98,East,80,0.0,0.0,89,0.00,,,0.00,130,Wunderground v.1.15,2013-05-23 14:30:00,
2013-05-23 07:41:00,46.2,42.8,29.97,ENE,65,0.0,0.0,88,0.00,,,0.00,114,Wunderground v.1.15,2013-05-23 14:41:00,
2013-05-23 07:51:00,46.7,43.0,29.98,North,355,0.0,0.0,87,0.00,,,0.00,197,Wunderground v.1.15,2013-05-23 14:51:00,
2013-05-23 08:01:00,47.1,43.1,29.98,NW,308,0.0,0.0,86,0.00,,,0.00,160,Wunderground v.1.15,2013-05-23 15:01:00,
2013-05-23 08:10:00,47.4,43.1,29.99,WNW,300,0.0,0.0,85,0.00,,,0.00,167,Wunderground v.1.15,2013-05-23 15:10:00,
2013-05-23 08:21:00,48.3,44.0,29.98,WSW,238,0.0,0.0,85,0.00,,,0.00,478,Wunderground v.1.15,2013-05-23 15:21:00,
2013-05-23 08:30:00,48.5,43.6,29.99,WNW,300,3.0,3.0,83,0.00,,,0.00,125,Wunderground v.1.15,2013-05-23 15:30:00,
2013-05-23 08:40:00,48.2,43.0,29.98,WNW,300,2.0,2.0,82,0.00,,,0.00,220,Wunderground v.1.15,2013-05-23 15:40:00,
2013-05-23 08:51:00,48.2,43.0,29.99,NW,304,2.0,2.0,82,0.00,,,0.00,237,Wunderground v.1.15,2013-05-23 15:51:00,
2013-05-23 09:01:00,48.5,43.3,30.00,NNW,331,1.0,3.0,82,0.00,,,0.00,214,Wunderground v.1.15,2013-05-23 16:01:00,
2013-05-23 09:10:00,48.6,42.7,29.99,WSW,253,2.0,2.0,80,0.00,,,0.00,311,Wunderground v.1.15,2013-05-23 16:10:00,
2013-05-23 09:21:00,49.8,43.5,30.00,WSW,242,1.0,1.0,79,0.00,,,0.00,360,Wunderground v.1.15,2013-05-23 16:21:00,
2013-05-23 09:31:00,50.4,43.1,30.00,WSW,239,3.0,3.0,76,0.00,,,0.00,295,Wunderground v.1.15,2013-05-23 16:31:00,
2013-05-23 09:40:00,50.7,43.4,30.00,SW,221,2.0,2.0,76,0.00,,,0.00,253,Wunderground v.1.15,2013-05-23 16:40:00,
2013-05-23 09:51:00,50.6,42.6,30.00,North,9,3.0,3.0,74,0.00,,,0.00,279,Wunderground v.1.15,2013-05-23 16:51:00,
2013-05-23 10:01:00,50.5,42.5,30.00,NW,306,2.0,3.0,74,0.00,,,0.00,262,Wunderground v.1.15,2013-05-23 17:01:00,
2013-05-23 10:10:00,50.8,43.2,30.01,NW,306,3.0,3.0,75,0.00,,,0.00,807,Wunderground v.1.15,2013-05-23 17:10:00,
2013-05-23 10:20:00,51.7,43.7,30.00,West,281,3.0,3.0,74,0.00,,,0.00,357,Wunderground v.1.15,2013-05-23 17:20:00,
2013-05-23 10:31:00,51.7,43.3,30.01,West,281,4.0,4.0,73,0.00,,,0.00,281,Wunderground v.1.15,2013-05-23 17:31:00,
2013-05-23 10:40:00,51.7,43.3,30.01,WSW,257,2.0,2.0,73,0.00,,,0.00,397,Wunderground v.1.15,2013-05-23 17:40:00,
2013-05-23 10:50:00,52.3,44.3,30.01,NW,304,2.0,5.0,74,0.00,,,0.00,360,Wunderground v.1.15,2013-05-23 17:50:00,
2013-05-23 11:01:00,52.6,43.8,30.01,WSW,242,3.0,5.0,72,0.00,,,0.00,933,Wunderground v.1.15,2013-05-23 18:01:00,
2013-05-23 11:11:00,52.8,43.3,30.02,West,279,2.0,2.0,70,0.00,,,0.00,285,Wunderground v.1.15,2013-05-23 18:11:00,
2013-05-23 11:20:00,53.3,44.5,30.01,NW,326,2.0,5.0,72,0.00,,,0.00,953,Wunderground v.1.15,2013-05-23 18:20:00,
2013-05-23 11:31:00,54.0,43.7,30.02,WSW,251,3.0,3.0,68,0.00,,,0.00,990,Wunderground v.1.15,2013-05-23 18:31:00,
2013-05-23 11:40:00,54.8,43.3,30.02,SW,227,3.0,6.0,65,0.00,,,0.00,912,Wunderground v.1.15,2013-05-23 18:40:00,
2013-05-23 11:51:00,54.7,42.8,30.02,WSW,252,5.0,5.0,64,0.00,,,0.00,911,Wunderground v.1.15,2013-05-23 18:51:00,
2013-05-23 12:01:00,55.1,43.1,30.02,SW,233,3.0,8.0,64,0.00,,,0.00,916,Wunderground v.1.15,2013-05-23 19:01:00,
2013-05-23 12:10:00,56.0,44.0,30.02,South,183,3.0,3.0,64,0.00,,,0.00,919,Wunderground v.1.15,2013-05-23 19:10:00,
2013-05-23 12:20:00,56.0,44.0,30.03,NNW,343,3.0,8.0,64,0.00,,,0.00,935,Wunderground v.1.15,2013-05-23 19:20:00,
2013-05-23 12:31:00,56.3,43.9,30.03,NW,324,2.0,6.0,63,0.00,,,0.00,947,Wunderground v.1.15,2013-05-23 19:31:00,
2013-05-23 12:41:00,56.2,42.9,30.03,WSW,238,4.0,4.0,61,0.00,,,0.00,954,Wunderground v.1.15,2013-05-23 19:41:00,
2013-05-23 12:50:00,56.4,43.1,30.03,WNW,302,2.0,7.0,61,0.00,,,0.00,956,Wunderground v.1.15,2013-05-23 19:50:00,
2013-05-23 13:01:00,57.3,42.6,30.02,NNW,347,3.0,3.0,58,0.00,,,0.00,967,Wunderground v.1.15,2013-05-23 20:01:00,
2013-05-23 13:11:00,58.7,43.0,30.02,West,277,3.0,3.0,56,0.00,,,0.00,969,Wunderground v.1.15,2013-05-23 20:11:00,
2013-05-23 13:21:00,58.1,42.5,30.02,WNW,288,4.0,10.0,56,0.00,,,0.00,967,Wunderground v.1.15,2013-05-23 20:21:00,
2013-05-23 13:31:00,58.0,43.3,30.03,NW,323,2.0,6.0,58,0.00,,,0.00,962,Wunderground v.1.15,2013-05-23 20:31:00,
2013-05-23 13:40:00,57.8,43.1,30.03,North,351,4.0,4.0,58,0.00,,,0.00,962,Wunderground v.1.15,2013-05-23 20:40:00,
2013-05-23 13:51:00,58.3,44.0,30.03,North,355,4.0,9.0,59,0.00,,,0.00,962,Wunderground v.1.15,2013-05-23 20:51:00,
2013-05-23 14:01:00,58.3,43.6,30.03,NE,39,8.0,8.0,58,0.00,,,0.00,953,Wunderground v.1.15,2013-05-23 21:01:00,
2013-05-23 14:11:00,58.6,44.8,30.03,NE,34,5.0,6.0,60,0.00,,,0.00,954,Wunderground v.1.15,2013-05-23 21:11:00,
2013-05-23 14:21:00,59.4,44.6,30.03,North,355,4.0,5.0,58,0.00,,,0.00,939,Wunderground v.1.15,2013-05-23 21:21:00,
2013-05-23 14:30:00,59.4,44.6,30.03,NNE,26,6.0,9.0,58,0.00,,,0.00,930,Wunderground v.1.15,2013-05-23 21:30:00,
2013-05-23 14:40:00,58.4,44.6,30.02,NNE,15,8.0,8.0,60,0.00,,,0.00,918,Wunderground v.1.15,2013-05-23 21:40:00,
2013-05-23 14:51:00,58.1,44.3,30.03,North,355,8.0,8.0,60,0.00,,,0.00,905,Wunderground v.1.15,2013-05-23 21:51:00,
2013-05-23 15:00:00,58.3,44.0,30.03,NNE,32,8.0,13.0,59,0.00,,,0.00,888,Wunderground v.1.15,2013-05-23 22:00:00,
2013-05-23 15:11:00,58.8,44.5,30.03,NNE,28,8.0,8.0,59,0.00,,,0.00,870,Wunderground v.1.15,2013-05-23 22:11:00,
2013-05-23 15:21:00,59.1,44.8,30.03,NW,324,9.0,11.0,59,0.00,,,0.00,847,Wunderground v.1.15,2013-05-23 22:21:00,
2013-05-23 15:31:00,58.7,44.4,30.03,NE,35,9.0,11.0,59,0.00,,,0.00,831,Wunderground v.1.15,2013-05-23 22:31:00,
2013-05-23 15:41:00,58.4,44.1,30.02,North,350,9.0,9.0,59,0.00,,,0.00,814,Wunderground v.1.15,2013-05-23 22:41:00,
2013-05-23 15:50:00,58.5,44.2,30.02,NNE,13,9.0,9.0,59,0.00,,,0.00,796,Wunderground v.1.15,2013-05-23 22:50:00,
2013-05-23 16:01:00,58.7,44.8,30.02,North,11,9.0,9.0,60,0.00,,,0.00,770,Wunderground v.1.15,2013-05-23 23:01:00,
2013-05-23 16:11:00,58.5,44.2,30.02,NNE,17,9.0,9.0,59,0.00,,,0.00,745,Wunderground v.1.15,2013-05-23 23:11:00,
2013-05-23 16:20:00,58.6,44.3,30.03,North,355,9.0,11.0,59,0.00,,,0.00,717,Wunderground v.1.15,2013-05-23 23:20:00,
2013-05-23 16:31:00,58.3,44.9,30.02,NW,325,9.0,9.0,61,0.00,,,0.00,689,Wunderground v.1.15,2013-05-23 23:31:00,
2013-05-23 16:41:00,58.4,44.6,30.03,NE,45,10.0,14.0,60,0.00,,,0.00,661,Wunderground v.1.15,2013-05-23 23:41:00,
2013-05-23 16:50:00,57.8,44.0,30.02,NNE,22,10.0,10.0,60,0.00,,,0.00,635,Wunderground v.1.15,2013-05-23 23:50:00,
2013-05-23 17:01:00,57.8,44.4,30.02,NNE,26,10.0,10.0,61,0.00,,,0.00,610,Wunderground v.1.15,2013-05-24 00:01:00,
2013-05-23 17:11:00,58.0,44.2,30.02,North,5,8.0,8.0,60,0.00,,,0.00,577,Wunderground v.1.15,2013-05-24 00:11:00,
2013-05-23 17:21:00,58.2,44.4,30.02,North,355,9.0,9.0,60,0.00,,,0.00,541,Wunderground v.1.15,2013-05-24 00:21:00,
2013-05-23 17:31:00,58.2,43.9,30.02,NW,321,9.0,9.0,59,0.00,,,0.00,513,Wunderground v.1.15,2013-05-24 00:31:00,
2013-05-23 17:41:00,57.9,43.7,30.02,North,351,9.0,9.0,59,0.00,,,0.00,482,Wunderground v.1.15,2013-05-24 00:41:00,
2013-05-23 17:50:00,57.8,43.6,30.02,NNE,15,9.0,10.0,59,0.00,,,0.00,450,Wunderground v.1.15,2013-05-24 00:50:00,
2013-05-23 18:01:00,57.4,43.2,30.02,NW,324,9.0,9.0,59,0.00,,,0.00,418,Wunderground v.1.15,2013-05-24 01:01:00,
2013-05-23 18:10:00,57.1,42.5,30.02,NNE,30,10.0,10.0,58,0.00,,,0.00,385,Wunderground v.1.15,2013-05-24 01:10:00,
2013-05-23 18:21:00,57.2,43.4,30.02,NW,320,7.0,7.0,60,0.00,,,0.00,353,Wunderground v.1.15,2013-05-24 01:21:00,
2013-05-23 18:30:00,57.2,43.9,30.02,NNW,335,7.0,9.0,61,0.00,,,0.00,322,Wunderground v.1.15,2013-05-24 01:30:00,
2013-05-23 18:41:00,56.8,43.9,30.02,NNW,344,8.0,8.0,62,0.00,,,0.00,288,Wunderground v.1.15,2013-05-24 01:41:00,
2013-05-23 18:51:00,56.4,44.0,30.02,NNW,340,6.0,6.0,63,0.00,,,0.00,255,Wunderground v.1.15,2013-05-24 01:51:00,
2013-05-23 19:01:00,56.2,44.6,30.03,NW,321,6.0,9.0,65,0.00,,,0.00,221,Wunderground v.1.15,2013-05-24 02:01:00,
2013-05-23 19:11:00,56.0,44.4,30.02,NW,304,4.0,8.0,65,0.00,,,0.00,188,Wunderground v.1.15,2013-05-24 02:11:00,
2013-05-23 19:20:00,55.9,45.9,30.02,NW,312,2.0,2.0,69,0.00,,,0.00,149,Wunderground v.1.15,2013-05-24 02:20:00,
2013-05-23 19:31:00,55.7,46.1,30.02,NW,325,1.0,1.0,70,0.00,,,0.00,109,Wunderground v.1.15,2013-05-24 02:31:00,
2013-05-23 19:41:00,55.4,45.8,30.02,WNW,282,0.0,0.0,70,0.00,,,0.00,76,Wunderground v.1.15,2013-05-24 02:41:00,
2013-05-23 19:50:00,54.8,45.6,30.02,WNW,300,2.0,2.0,71,0.00,,,0.00,32,Wunderground v.1.15,2013-05-24 02:50:00,
2013-05-23 20:01:00,53.8,45.7,30.02,West,259,2.0,2.0,74,0.00,,,0.00,19,Wunderground v.1.15,2013-05-24 03:01:00,
2013-05-23 20:10:00,53.0,46.0,30.02,WSW,243,3.0,3.0,77,0.00,,,0.00,11,Wunderground v.1.15,2013-05-24 03:10:00,
2013-05-23 20:20:00,52.4,45.7,30.02,WSW,246,1.0,1.0,78,0.00,,,0.00,5,Wunderground v.1.15,2013-05-24 03:20:00,
2013-05-23 20:31:00,51.8,45.5,30.02,SW,233,3.0,5.0,79,0.00,,,0.00,0,Wunderground v.1.15,2013-05-24 03:31:00,
2013-05-23 20:40:00,51.2,45.6,30.02,SW,227,4.0,5.0,81,0.00,,,0.00,0,Wunderground v.1.15,2013-05-24 03:40:00,
2013-05-23 20:51:00,50.5,44.9,30.02,SW,225,4.0,4.0,81,0.00,,,0.00,0,Wunderground v.1.15,2013-05-24 03:51:00,
2013-05-23 21:01:00,50.1,44.8,30.02,SW,236,4.0,4.0,82,0.00,,,0.00,0,Wunderground v.1.15,2013-05-24 04:01:00,
2013-05-23 21:05:00,49.9,44.9,30.03,SW,232,5.0,5.0,83,0.00,,,0.00,0,Wunderground v.1.15,2013-05-24 04:05:00,
2013-05-23 21:11:00,49.6,44.6,30.03,WSW,238,5.0,5.0,83,0.00,,,0.00,0,Wunderground v.1.15,2013-05-24 04:11:00,
2013-05-23 21:15:00,49.5,44.9,30.03,SW,221,5.0,5.0,84,0.00,,,0.00,0,Wunderground v.1.15,2013-05-24 04:15:00,
2013-05-23 21:20:00,49.3,44.7,30.03,SW,236,5.0,5.0,84,0.00,,,0.00,0,Wunderground v.1.15,2013-05-24 04:20:00,
2013-05-23 21:25:00,49.2,44.6,30.03,SW,234,5.0,8.0,84,0.00,,,0.00,0,Wunderground v.1.15,2013-05-24 04:25:00,
2013-05-23 21:31:00,49.1,44.8,30.03,SW,233,5.0,7.0,85,0.00,,,0.00,0,Wunderground v.1.15,2013-05-24 04:31:00,
2013-05-23 21:40:00,48.9,44.9,30.04,WSW,237,5.0,6.0,86,0.00,,,0.00,0,Wunderground v.1.15,2013-05-24 04:40:00,
2013-05-23 21:50:00,48.8,44.8,30.04,SW,231,5.0,6.0,86,0.00,,,0.00,0,Wunderground v.1.15,2013-05-24 04:50:00,
2013-05-23 21:55:00,48.8,44.8,30.04,SW,225,5.0,6.0,86,0.00,,,0.00,0,Wunderground v.1.15,2013-05-24 04:55:00,
2013-05-23 22:01:00,48.7,45.0,30.04,SW,225,4.0,4.0,87,0.00,,,0.00,0,Wunderground v.1.15,2013-05-24 05:01:00,
2013-05-23 22:11:00,48.6,44.9,30.04,WSW,238,3.0,7.0,87,0.00,,,0.00,0,Wunderground v.1.15,2013-05-24 05:11:00,
2013-05-23 22:25:00,48.4,45.0,30.04,SW,231,5.0,5.0,88,0.00,,,0.00,0,Wunderground v.1.15,2013-05-24 05:25:00,
2013-05-23 22:31:00,48.3,44.9,30.04,SSW,209,4.0,5.0,88,0.00,,,0.00,0,Wunderground v.1.15,2013-05-24 05:31:00,
2013-05-23 22:41:00,48.1,44.7,30.04,SW,233,5.0,8.0,88,0.00,,,0.00,0,Wunderground v.1.15,2013-05-24 05:41:00,
2013-05-23 22:51:00,47.9,44.8,30.04,SW,227,4.0,4.0,89,0.00,,,0.00,0,Wunderground v.1.15,2013-05-24 05:51:00,
2013-05-23 23:00:00,47.7,44.6,30.03,SW,221,5.0,6.0,89,0.00,,,0.00,0,Wunderground v.1.15,2013-05-24 06:00:00,
2013-05-23 23:11:00,47.6,44.8,30.03,SW,218,5.0,8.0,90,0.00,,,0.00,0,Wunderground v.1.15,2013-05-24 06:11:00,
2013-05-23 23:21:00,47.5,44.7,30.03,SW,222,6.0,6.0,90,0.00,,,0.00,0,Wunderground v.1.15,2013-05-24 06:21:00,
2013-05-23 23:31:00,47.4,44.9,30.03,SW,227,5.0,7.0,91,0.00,,,0.00,0,Wunderground v.1.15,2013-05-24 06:31:00,
2013-05-23 23:41:00,47.3,44.8,30.02,SW,216,6.0,6.0,91,0.00,,,0.00,0,Wunderground v.1.15,2013-05-24 06:41:00,
2013-05-23 23:50:00,47.3,44.8,30.02,SW,217,6.0,6.0,91,0.00,,,0.00,0,Wunderground v.1.15,2013-05-24 06:50:00,